createdAt,value
2023-02-19T00:00:16.433Z,3.75
2023-02-19T00:03:04.903Z,5.03
2023-02-19T00:05:35.537Z,6.10
2023-02-19T00:08:04.351Z,3.85
2023-02-19T00:10:32.574Z,3.53
2023-02-19T00:13:01.229Z,3.53
2023-02-19T00:15:32.903Z,5.15
2023-02-19T00:18:02.263Z,3.42
2023-02-19T00:20:30.457Z,3.05
2023-02-19T00:22:58.975Z,4.60
2023-02-19T00:25:27.333Z,3.13
2023-02-19T00:27:55.904Z,4.47
2023-02-19T00:30:28.505Z,3.85
2023-02-19T00:32:57.302Z,3.63
2023-02-19T00:35:25.519Z,3.70
2023-02-19T00:37:54.344Z,3.97
2023-02-19T00:40:22.942Z,2.45
2023-02-19T00:42:52.163Z,3.70
2023-02-19T00:45:20.755Z,3.40
2023-02-19T00:47:49.586Z,3.25
2023-02-19T00:50:17.878Z,2.95
2023-02-19T00:52:46.482Z,2.20
2023-02-19T00:55:16.004Z,3.53
2023-02-19T00:57:44.571Z,2.53
2023-02-19T01:00:13.494Z,3.13
2023-02-19T01:02:42.103Z,1.80
2023-02-19T01:05:10.555Z,3.53
2023-02-19T01:07:39.913Z,2.60
2023-02-19T01:10:09.559Z,3.03
2023-02-19T01:12:38.130Z,3.33
2023-02-19T01:15:06.743Z,3.05
2023-02-19T01:17:36.870Z,3.10
2023-02-19T01:20:05.667Z,2.85
2023-02-19T01:22:34.485Z,3.17
2023-02-19T01:25:02.934Z,3.25
2023-02-19T01:27:31.737Z,3.60
2023-02-19T01:30:00.164Z,3.00
2023-02-19T01:32:28.863Z,3.13
2023-02-19T01:34:57.270Z,2.97
2023-02-19T01:37:25.552Z,3.70
2023-02-19T01:39:54.196Z,3.08
2023-02-19T01:42:22.643Z,2.70
2023-02-19T01:44:51.433Z,2.80
2023-02-19T01:47:21.154Z,3.15
2023-02-19T01:49:56.866Z,3.03
2023-02-19T01:52:34.448Z,5.03
2023-02-19T01:55:07.208Z,4.32
2023-02-19T01:57:43.847Z,3.40
2023-02-19T02:00:16.771Z,3.08
2023-02-19T02:02:50.577Z,2.42
2023-02-19T02:05:31.416Z,4.30
2023-02-19T02:08:22.479Z,3.33
2023-02-19T02:10:52.188Z,3.63
2023-02-19T02:13:20.669Z,3.33
2023-02-19T02:16:19.200Z,3.88
2023-02-19T02:19:02.181Z,3.90
2023-02-19T02:21:54.416Z,4.30
2023-02-19T02:24:52.920Z,2.90
2023-02-19T02:28:00.112Z,3.30
2023-02-19T02:30:37.999Z,3.65
2023-02-19T02:33:27.818Z,3.85
2023-02-19T02:35:59.315Z,2.85
2023-02-19T02:38:31.618Z,3.80
2023-02-19T02:41:00.740Z,3.27
2023-02-19T02:43:29.872Z,4.13
2023-02-19T02:45:58.843Z,3.13
2023-02-19T02:49:05.391Z,4.38
2023-02-19T02:51:40.781Z,3.85
2023-02-19T02:54:39.735Z,4.03
2023-02-19T02:57:15.009Z,3.33
2023-02-19T03:02:26.421Z,2.92
2023-02-19T03:05:22.740Z,3.20
2023-02-19T03:10:53.547Z,2.85
2023-02-19T03:13:53.726Z,2.90
2023-02-19T03:16:48.879Z,3.72
2023-02-19T03:19:19.654Z,3.20
2023-02-19T03:22:16.080Z,3.70
2023-02-19T03:25:13.128Z,3.30
2023-02-19T03:27:44.396Z,3.00
2023-02-19T03:30:19.285Z,3.45
2023-02-19T03:33:09.934Z,3.60
2023-02-19T03:35:47.333Z,4.38
2023-02-19T03:38:27.461Z,4.13
2023-02-19T03:41:04.564Z,2.65
2023-02-19T03:43:46.685Z,2.95
2023-02-19T03:46:34.571Z,4.28
2023-02-19T03:49:17.147Z,3.90
2023-02-19T03:51:58.748Z,3.20
2023-02-19T03:55:12.537Z,3.67
2023-02-19T03:57:56.634Z,3.38
2023-02-19T04:00:40.842Z,3.42
2023-02-19T04:03:34.878Z,3.50
2023-02-19T04:06:07.852Z,4.13
2023-02-19T04:08:39.951Z,2.88
2023-02-19T04:11:10.594Z,3.67
2023-02-19T04:13:50.241Z,3.33
2023-02-19T04:16:22.689Z,3.63
2023-02-19T04:18:54.748Z,4.03
2023-02-19T04:21:24.311Z,3.15
2023-02-19T04:23:52.731Z,3.45
2023-02-19T04:26:22.936Z,3.55
2023-02-19T04:28:52.306Z,3.63
2023-02-19T04:31:21.050Z,3.30
2023-02-19T04:33:49.328Z,3.65
2023-02-19T04:36:17.875Z,3.97
2023-02-19T04:38:46.144Z,3.00
2023-02-19T04:41:14.856Z,3.33
2023-02-19T04:43:43.163Z,3.50
2023-02-19T04:46:11.748Z,3.60
2023-02-19T04:48:40.150Z,3.42
2023-02-19T04:51:10.870Z,2.60
2023-02-19T04:53:39.432Z,3.53
2023-02-19T04:56:14.098Z,3.50
2023-02-19T04:58:43.258Z,3.70
2023-02-19T05:01:12.646Z,3.05
2023-02-19T05:03:41.315Z,3.33
2023-02-19T05:06:14.484Z,3.25
2023-02-19T05:08:43.138Z,2.95
2023-02-19T05:11:12.918Z,3.40
2023-02-19T05:13:41.984Z,3.03
2023-02-19T05:16:16.203Z,3.25
2023-02-19T05:18:46.544Z,4.00
2023-02-19T05:21:15.550Z,3.58
2023-02-19T05:23:44.365Z,2.95
2023-02-19T05:26:19.839Z,3.30
2023-02-19T05:28:51.111Z,3.25
2023-02-19T05:31:20.824Z,3.22
2023-02-19T05:33:51.514Z,3.42
2023-02-19T05:36:22.148Z,3.00
2023-02-19T05:38:55.325Z,2.88
2023-02-19T05:41:28.882Z,3.70
2023-02-19T05:43:58.131Z,3.63
2023-02-19T05:46:29.931Z,3.47
2023-02-19T05:49:00.004Z,3.65
2023-02-19T05:51:28.708Z,2.70
2023-02-19T05:53:57.713Z,3.63
2023-02-19T05:56:38.620Z,3.85
2023-02-19T05:59:15.248Z,3.40
2023-02-19T06:01:44.545Z,3.88
2023-02-19T06:04:14.238Z,3.92
2023-02-19T06:06:42.853Z,4.10
2023-02-19T06:09:11.426Z,3.05
2023-02-19T06:11:40.825Z,3.10
2023-02-19T06:14:11.144Z,3.45
2023-02-19T06:16:40.045Z,3.10
2023-02-19T06:19:08.310Z,3.92
2023-02-19T06:21:37.140Z,2.65
2023-02-19T06:24:09.557Z,3.60
2023-02-19T06:26:38.625Z,3.90
2023-02-19T06:29:06.952Z,3.30
2023-02-19T06:31:35.790Z,4.15
2023-02-19T06:34:05.382Z,3.28
2023-02-19T06:36:34.487Z,3.53
2023-02-19T06:39:04.887Z,3.65
2023-02-19T06:41:33.892Z,3.70
2023-02-19T06:44:02.296Z,3.67
2023-02-19T06:46:31.182Z,3.78
2023-02-19T06:48:59.477Z,3.90
2023-02-19T06:51:29.876Z,3.20
2023-02-19T06:53:58.742Z,4.28
2023-02-19T06:56:28.773Z,3.45
2023-02-19T06:59:00.015Z,3.05
2023-02-19T07:01:30.813Z,4.00
2023-02-19T07:03:59.486Z,2.08
2023-02-19T07:06:30.227Z,3.92
2023-02-19T07:08:59.600Z,3.80
2023-02-19T07:11:31.412Z,3.58
2023-02-19T07:14:02.005Z,3.75
2023-02-19T07:16:31.545Z,4.50
2023-02-19T07:19:00.908Z,4.95
2023-02-19T07:21:30.113Z,5.03
2023-02-19T07:23:58.853Z,5.40
2023-02-19T07:26:27.406Z,5.40
2023-02-19T07:28:56.220Z,5.55
2023-02-19T07:31:25.223Z,3.95
2023-02-19T07:33:53.995Z,4.85
2023-02-19T07:36:24.454Z,5.40
2023-02-19T07:38:57.853Z,4.22
2023-02-19T07:41:27.656Z,5.70
2023-02-19T07:43:59.256Z,4.70
2023-02-19T07:46:28.401Z,3.75
2023-02-19T07:48:56.687Z,3.15
2023-02-19T07:51:25.252Z,5.75
2023-02-19T07:53:53.586Z,6.32
2023-02-19T07:56:24.633Z,4.90
2023-02-19T07:58:54.319Z,4.68
2023-02-19T08:01:44.959Z,4.20
2023-02-19T08:04:14.647Z,5.85
2023-02-19T08:06:44.548Z,8.90
2023-02-19T08:09:13.061Z,6.50
2023-02-19T08:12:00.064Z,7.03
2023-02-19T08:14:28.676Z,7.03
2023-02-19T08:16:57.371Z,3.80
2023-02-19T08:19:26.162Z,7.57
2023-02-19T08:21:54.862Z,6.53
2023-02-19T08:24:23.351Z,3.05
2023-02-19T08:26:52.099Z,11.80
2023-02-19T08:49:42.301Z,12.27
2023-02-19T08:52:11.475Z,6.88
2023-02-19T08:54:39.682Z,6.32
2023-02-19T08:57:08.424Z,7.18
2023-02-19T08:59:36.798Z,7.40
2023-02-19T09:02:05.383Z,6.28
2023-02-19T09:04:33.651Z,5.38
2023-02-19T09:07:02.370Z,11.50
2023-02-19T09:09:30.652Z,7.22
2023-02-19T09:11:59.405Z,3.85
2023-02-19T09:14:27.784Z,4.35
2023-02-19T09:16:56.819Z,3.80
2023-02-19T09:19:33.492Z,7.35
2023-02-19T09:22:06.468Z,2.95
2023-02-19T09:24:38.684Z,3.30
2023-02-19T09:27:07.921Z,2.80
2023-02-19T09:29:36.257Z,4.07
2023-02-19T09:32:05.061Z,3.88
2023-02-19T09:34:33.387Z,2.45
2023-02-19T09:37:02.021Z,3.75
2023-02-19T09:39:30.331Z,2.83
2023-02-19T09:42:11.672Z,2.53
2023-02-19T09:44:43.742Z,2.78
2023-02-19T09:47:21.767Z,1.98
2023-02-19T09:49:54.287Z,3.30
2023-02-19T09:52:49.177Z,2.58
2023-02-19T09:55:20.902Z,2.80
2023-02-19T09:57:51.584Z,3.40
2023-02-19T10:00:23.026Z,7.63
2023-02-19T10:03:07.026Z,3.40
2023-02-19T10:05:35.653Z,4.15
2023-02-19T10:08:07.429Z,3.80
2023-02-19T10:10:37.346Z,2.95
2023-02-19T10:13:19.358Z,2.10
2023-02-19T10:15:54.741Z,2.78
2023-02-19T10:18:28.439Z,4.20
2023-02-19T10:20:57.888Z,2.92
2023-02-19T10:23:26.719Z,2.85
2023-02-19T10:26:00.318Z,2.83
2023-02-19T10:28:34.955Z,2.03
2023-02-19T10:31:07.348Z,2.90
2023-02-19T10:33:58.019Z,2.63
2023-02-19T10:36:33.119Z,2.35
2023-02-19T10:39:07.124Z,2.53
2023-02-19T10:41:44.044Z,2.53
2023-02-19T10:44:22.310Z,1.95
2023-02-19T10:46:55.599Z,1.75
2023-02-19T10:49:31.603Z,1.67
2023-02-19T10:52:18.036Z,2.50
2023-02-19T10:54:51.156Z,1.55
2023-02-19T10:57:19.688Z,1.95
2023-02-19T10:59:52.311Z,2.83
2023-02-19T11:02:21.747Z,2.00
2023-02-19T11:05:16.736Z,1.85
2023-02-19T11:07:58.089Z,1.63
2023-02-19T11:10:28.526Z,1.80
2023-02-19T11:13:00.387Z,1.15
2023-02-19T11:15:32.633Z,1.13
2023-02-19T11:18:13.713Z,1.38
2023-02-19T11:21:04.024Z,1.85
2023-02-19T11:24:18.818Z,2.10
2023-02-19T11:27:18.093Z,2.30
2023-02-19T11:29:46.700Z,1.20
2023-02-19T11:32:21.426Z,1.73
2023-02-19T11:34:49.849Z,2.00
2023-02-19T11:37:21.289Z,3.55
2023-02-19T11:39:51.812Z,2.00
2023-02-19T11:42:35.691Z,2.05
2023-02-19T11:45:20.482Z,3.67
2023-02-19T11:48:11.479Z,1.92
2023-02-19T11:51:00.043Z,2.40
2023-02-19T11:53:48.060Z,2.00
2023-02-19T11:56:23.767Z,1.88
2023-02-19T11:59:15.818Z,2.25
2023-02-19T12:02:13.195Z,1.40
2023-02-19T12:04:58.978Z,4.97
2023-02-19T12:07:49.998Z,1.60
2023-02-19T12:10:24.703Z,2.00
2023-02-19T12:13:21.154Z,0.95
2023-02-19T12:16:13.661Z,1.75
2023-02-19T12:19:15.412Z,2.33
2023-02-19T12:31:14.624Z,1.38
2023-02-19T12:33:43.350Z,1.50
2023-02-19T12:43:15.941Z,1.23
2023-02-19T12:45:52.562Z,1.90
2023-02-19T12:48:47.506Z,1.40
2023-02-19T12:51:49.009Z,1.80
2023-02-19T12:57:31.742Z,1.50
2023-02-19T13:00:23.803Z,1.40
2023-02-19T13:06:18.759Z,2.20
2023-02-19T13:09:07.641Z,1.17
2023-02-19T13:11:42.890Z,1.63
2023-02-19T13:14:54.806Z,1.10
2023-02-19T13:17:39.133Z,1.52
2023-02-19T13:20:39.176Z,1.58
2023-02-19T13:23:32.460Z,1.48
2023-02-19T13:26:29.867Z,1.05
2023-02-19T13:36:01.260Z,2.80
2023-02-19T13:38:30.368Z,1.83
2023-02-19T13:41:00.356Z,1.30
2023-02-19T13:43:39.389Z,1.95
2023-02-19T13:46:14.911Z,2.70
2023-02-19T13:48:53.454Z,2.10
2023-02-19T13:51:49.657Z,0.95
2023-02-19T13:54:40.493Z,1.67
2023-02-19T13:57:18.190Z,3.22
2023-02-19T13:59:48.402Z,1.35
2023-02-19T14:02:29.005Z,0.80
2023-02-19T14:05:07.684Z,0.90
2023-02-19T14:07:50.692Z,1.55
2023-02-19T14:11:09.738Z,1.33
2023-02-19T14:13:50.992Z,1.52
2023-02-19T14:16:49.604Z,1.25
2023-02-19T14:20:14.180Z,1.50
2023-02-19T14:23:01.918Z,1.75
2023-02-19T14:25:40.833Z,2.22
2023-02-19T14:28:24.185Z,1.10
2023-02-19T14:30:52.511Z,1.00
2023-02-19T14:33:46.244Z,0.90
2023-02-19T14:36:50.307Z,1.27
2023-02-19T14:39:23.748Z,1.42
2023-02-19T14:41:56.588Z,0.90
2023-02-19T14:44:28.819Z,0.70
2023-02-19T14:47:04.232Z,1.90
2023-02-19T14:50:00.543Z,1.50
2023-02-19T14:52:37.128Z,1.00
2023-02-19T14:55:50.979Z,1.60
2023-02-19T14:58:24.977Z,0.90
2023-02-19T15:00:53.598Z,0.90
2023-02-19T15:03:26.661Z,0.57
2023-02-19T15:06:06.204Z,0.75
2023-02-19T15:08:44.128Z,1.00
2023-02-19T15:11:20.082Z,1.08
2023-02-19T15:13:59.387Z,1.10
2023-02-19T15:16:29.982Z,0.95
2023-02-19T15:19:00.570Z,0.90
2023-02-19T15:21:32.450Z,1.20
2023-02-19T15:24:04.287Z,0.80
2023-02-19T15:26:41.151Z,1.10
2023-02-19T15:29:13.221Z,1.20
2023-02-19T15:31:51.145Z,1.08
2023-02-19T15:34:23.555Z,0.32
2023-02-19T15:36:58.352Z,0.75
2023-02-19T15:39:33.892Z,1.63
2023-02-19T15:42:05.660Z,1.75
2023-02-19T15:45:00.378Z,1.17
2023-02-19T15:47:33.592Z,0.63
2023-02-19T15:50:29.978Z,1.38
2023-02-19T15:53:17.109Z,4.55
2023-02-19T15:55:55.073Z,1.77
2023-02-19T15:58:33.328Z,1.60
2023-02-19T16:01:05.316Z,1.23
2023-02-19T16:03:36.019Z,2.17
2023-02-19T16:06:36.141Z,1.20
2023-02-19T16:10:03.174Z,1.38
2023-02-19T16:12:34.768Z,2.40
2023-02-19T16:15:15.494Z,1.95
2023-02-19T16:18:14.215Z,1.52
2023-02-19T16:20:48.055Z,1.15
2023-02-19T16:23:20.838Z,0.82
2023-02-19T16:25:49.479Z,1.15
2023-02-19T16:28:24.194Z,0.93
2023-02-19T16:31:07.487Z,1.10
2023-02-19T16:33:48.375Z,1.08
2023-02-19T16:36:38.060Z,1.33
2023-02-19T16:39:09.356Z,0.68
2023-02-19T16:42:15.903Z,1.00
2023-02-19T16:44:44.942Z,1.23
2023-02-19T16:47:25.330Z,0.98
2023-02-19T16:49:54.432Z,0.93
2023-02-19T16:52:23.103Z,1.25
2023-02-19T16:54:51.377Z,1.60
2023-02-19T16:57:20.842Z,1.30
2023-02-19T16:59:49.211Z,1.75
2023-02-19T17:02:24.795Z,1.02
2023-02-19T17:04:55.258Z,1.35
2023-02-19T17:07:24.233Z,1.10
2023-02-19T17:11:08.403Z,1.35
2023-02-19T17:13:37.082Z,1.80
2023-02-19T17:16:05.957Z,1.15
2023-02-19T17:18:34.601Z,1.30
2023-02-19T17:21:14.101Z,1.27
2023-02-19T17:23:42.667Z,1.40
2023-02-19T17:26:25.778Z,1.30
2023-02-19T17:28:59.827Z,1.80
2023-02-19T17:31:28.989Z,1.80
2023-02-19T17:33:59.078Z,2.72
2023-02-19T17:36:30.892Z,1.98
2023-02-19T17:39:01.780Z,1.92
2023-02-19T17:41:30.738Z,2.33
2023-02-19T17:43:59.659Z,5.90
2023-02-19T17:46:28.083Z,2.80
2023-02-19T17:48:56.805Z,3.22
2023-02-19T17:51:25.177Z,3.80
2023-02-19T17:53:53.900Z,3.72
2023-02-19T17:56:25.479Z,5.63
2023-02-19T17:58:58.308Z,8.82
2023-02-19T18:01:26.744Z,7.97
2023-02-19T18:04:23.846Z,7.20
2023-02-19T18:06:54.041Z,12.85
2023-02-19T18:09:23.310Z,9.80
2023-02-19T18:11:51.766Z,7.65
2023-02-19T18:14:20.495Z,6.90
2023-02-19T18:16:50.376Z,4.93
2023-02-19T18:19:19.350Z,5.22
2023-02-19T18:21:48.017Z,5.53
2023-02-19T18:24:16.897Z,5.88
2023-02-19T18:29:56.146Z,4.53
2023-02-19T18:32:28.279Z,4.15
2023-02-19T18:34:59.142Z,4.75
2023-02-19T18:37:30.508Z,3.20
2023-02-19T18:40:00.460Z,2.70
2023-02-19T18:42:28.865Z,1.98
2023-02-19T18:49:08.952Z,4.43
2023-02-19T18:56:28.032Z,4.78
2023-02-19T19:03:17.975Z,2.97
2023-02-19T19:06:14.873Z,2.38
2023-02-19T19:15:25.094Z,4.25
2023-02-19T19:24:57.846Z,4.70
2023-02-19T19:28:02.875Z,3.67
2023-02-19T19:31:56.524Z,3.17
2023-02-19T19:35:21.063Z,3.88
2023-02-19T19:44:41.000Z,4.28
2023-02-19T20:03:19.865Z,4.63
2023-02-19T20:09:12.444Z,3.13
2023-02-19T20:20:55.485Z,2.83
2023-02-19T20:23:29.170Z,3.83
2023-02-19T20:26:09.208Z,1.38
2023-02-19T20:29:53.631Z,2.80
2023-02-19T20:33:12.970Z,2.95
2023-02-19T20:39:05.905Z,3.78
2023-02-19T20:42:08.372Z,1.58
2023-02-19T20:45:06.077Z,1.95
2023-02-19T20:48:02.346Z,0.90
2023-02-19T20:51:38.663Z,1.50
2023-02-19T21:01:21.878Z,2.13
2023-02-19T21:04:19.200Z,1.60
2023-02-19T21:16:51.925Z,2.03
2023-02-19T21:20:11.720Z,1.58
2023-02-19T21:23:02.202Z,2.10
2023-02-19T21:26:31.407Z,2.20
2023-02-19T21:29:55.598Z,2.05
2023-02-19T21:32:24.337Z,1.15
2023-02-19T21:38:07.045Z,2.40
2023-02-19T21:41:22.381Z,2.05
2023-02-19T21:46:46.113Z,1.15
2023-02-19T21:49:15.746Z,1.77
2023-02-19T21:52:17.127Z,2.63
2023-02-19T21:57:54.092Z,1.48
2023-02-19T22:00:52.495Z,1.20
2023-02-19T22:03:30.102Z,0.93
2023-02-19T22:10:18.958Z,1.10
2023-02-19T22:12:48.404Z,1.05
2023-02-19T22:15:17.167Z,1.45
2023-02-19T22:18:10.886Z,0.93
2023-02-19T22:22:03.968Z,1.15
2023-02-19T22:24:32.820Z,1.08
2023-02-19T22:27:03.514Z,0.82
2023-02-19T22:29:57.899Z,1.50
2023-02-19T22:32:26.321Z,1.48
2023-02-19T22:34:54.994Z,1.75
2023-02-19T22:37:23.584Z,1.88
2023-02-19T22:39:52.393Z,0.80
2023-02-19T22:42:46.858Z,1.83
2023-02-19T22:45:17.281Z,1.27
2023-02-19T22:47:47.029Z,1.35
2023-02-19T22:50:22.510Z,1.70
2023-02-19T22:52:54.477Z,2.72
2023-02-19T22:55:23.384Z,2.17
2023-02-19T22:57:51.621Z,0.88
2023-02-19T23:00:21.788Z,1.60
2023-02-19T23:03:18.489Z,1.88
2023-02-19T23:05:51.783Z,3.72
2023-02-19T23:08:24.221Z,2.30
2023-02-19T23:10:52.877Z,2.17
2023-02-19T23:13:22.336Z,2.40
2023-02-19T23:15:51.322Z,1.73
2023-02-19T23:18:19.587Z,1.80
2023-02-19T23:20:52.143Z,1.95
2023-02-19T23:23:22.239Z,1.48
2023-02-19T23:25:50.927Z,2.55
2023-02-19T23:28:19.584Z,1.83
2023-02-19T23:30:48.987Z,2.17
2023-02-19T23:33:17.980Z,1.98
2023-02-19T23:35:49.083Z,2.92
2023-02-19T23:38:17.410Z,1.70
2023-02-19T23:40:46.055Z,2.30
2023-02-19T23:43:14.689Z,2.80
2023-02-19T23:45:43.533Z,1.92
2023-02-19T23:48:12.407Z,2.40
2023-02-19T23:51:05.893Z,2.28
2023-02-19T23:53:34.340Z,2.50
2023-02-19T23:56:02.963Z,1.88
2023-02-19T23:58:31.311Z,1.20
